sensor_id;sensor_type;location;lat;lon;timestamp;pressure;altitude;pressure_sealevel;temperature;humidity
74065;BME280;62421;51.412;5.432;2023-04-23T00:02:07;100654.09;;;6.99;100.00
74065;BME280;62421;51.412;5.432;2023-04-23T00:04:35;100651.69;;;6.94;100.00
74065;BME280;62421;51.412;5.432;2023-04-23T00:07:02;100652.81;;;6.90;100.00
74065;BME280;62421;51.412;5.432;2023-04-23T00:09:29;100648.63;;;6.86;100.00
74065;BME280;62421;51.412;5.432;2023-04-23T00:11:59;100648.78;;;6.83;100.00
74065;BME280;62421;51.412;5.432;2023-04-23T00:14:26;100644.56;;;6.79;100.00
74065;BME280;62421;51.412;5.432;2023-04-23T00:16:52;100637.59;;;6.76;100.00
74065;BME280;62421;51.412;5.432;2023-04-23T00:19:17;100641.13;;;6.77;100.00
74065;BME280;62421;51.412;5.432;2023-04-23T00:21:42;100642.09;;;6.76;100.00
74065;BME280;62421;51.412;5.432;2023-04-23T00:24:08;100636.81;;;6.74;100.00
74065;BME280;62421;51.412;5.432;2023-04-23T00:26:33;100640.53;;;6.72;100.00
74065;BME280;62421;51.412;5.432;2023-04-23T00:28:58;100645.94;;;6.70;100.00
74065;BME280;62421;51.412;5.432;2023-04-23T00:31:24;100647.00;;;6.68;100.00
74065;BME280;62421;51.412;5.432;2023-04-23T00:33:51;100647.00;;;6.68;100.00
74065;BME280;62421;51.412;5.432;2023-04-23T00:36:17;100642.63;;;6.67;100.00
74065;BME280;62421;51.412;5.432;2023-04-23T00:38:42;100642.63;;;6.67;100.00
74065;BME280;62421;51.412;5.432;2023-04-23T00:41:08;100632.09;;;6.64;100.00
74065;BME280;62421;51.412;5.432;2023-04-23T00:43:33;100637.63;;;6.61;100.00
74065;BME280;62421;51.412;5.432;2023-04-23T00:45:59;100624.56;;;6.56;100.00
74065;BME280;62421;51.412;5.432;2023-04-23T00:48:24;100625.56;;;6.53;100.00
74065;BME280;62421;51.412;5.432;2023-04-23T00:51:05;100622.13;;;6.51;100.00
74065;BME280;62421;51.412;5.432;2023-04-23T00:53:32;100623.84;;;6.52;100.00
74065;BME280;62421;51.412;5.432;2023-04-23T00:55:59;100614.03;;;6.53;100.00
74065;BME280;62421;51.412;5.432;2023-04-23T00:58:26;100609.75;;;6.50;100.00
74065;BME280;62421;51.412;5.432;2023-04-23T01:00:52;100605.34;;;6.49;100.00
74065;BME280;62421;51.412;5.432;2023-04-23T01:03:17;100604.41;;;6.50;100.00
74065;BME280;62421;51.412;5.432;2023-04-23T01:05:46;100607.78;;;6.54;100.00
74065;BME280;62421;51.412;5.432;2023-04-23T01:08:15;100602.16;;;6.59;100.00
74065;BME280;62421;51.412;5.432;2023-04-23T01:10:44;100600.84;;;6.66;100.00
74065;BME280;62421;51.412;5.432;2023-04-23T01:13:12;100606.63;;;6.74;100.00
74065;BME280;62421;51.412;5.432;2023-04-23T01:15:37;100605.38;;;6.80;100.00
74065;BME280;62421;51.412;5.432;2023-04-23T01:18:02;100605.03;;;6.86;100.00
74065;BME280;62421;51.412;5.432;2023-04-23T01:20:29;100594.06;;;6.90;100.00
74065;BME280;62421;51.412;5.432;2023-04-23T01:22:54;100596.50;;;6.95;100.00
74065;BME280;62421;51.412;5.432;2023-04-23T01:25:20;100591.94;;;6.97;100.00
74065;BME280;62421;51.412;5.432;2023-04-23T01:27:46;100594.41;;;7.00;100.00
74065;BME280;62421;51.412;5.432;2023-04-23T01:30:12;100596.88;;;7.03;100.00
74065;BME280;62421;51.412;5.432;2023-04-23T01:32:39;100592.25;;;7.07;100.00
74065;BME280;62421;51.412;5.432;2023-04-23T01:35:05;100591.19;;;7.09;100.00
74065;BME280;62421;51.412;5.432;2023-04-23T01:37:31;100589.22;;;7.13;100.00
74065;BME280;62421;51.412;5.432;2023-04-23T01:39:57;100584.72;;;7.13;100.00
74065;BME280;62421;51.412;5.432;2023-04-23T01:42:23;100586.44;;;7.14;100.00
74065;BME280;62421;51.412;5.432;2023-04-23T01:44:49;100588.00;;;7.18;100.00
74065;BME280;62421;51.412;5.432;2023-04-23T01:47:15;100586.09;;;7.21;100.00
74065;BME280;62421;51.412;5.432;2023-04-23T01:49:40;100592.38;;;7.20;100.00
74065;BME280;62421;51.412;5.432;2023-04-23T01:52:06;100589.00;;;7.16;100.00
74065;BME280;62421;51.412;5.432;2023-04-23T01:54:31;100595.31;;;7.15;100.00
74065;BME280;62421;51.412;5.432;2023-04-23T01:56:57;100588.44;;;7.11;100.00
74065;BME280;62421;51.412;5.432;2023-04-23T01:59:23;100587.75;;;7.07;100.00
74065;BME280;62421;51.412;5.432;2023-04-23T02:01:48;100586.97;;;7.05;100.00
74065;BME280;62421;51.412;5.432;2023-04-23T02:04:15;100596.13;;;7.01;100.00
74065;BME280;62421;51.412;5.432;2023-04-23T02:06:43;100592.78;;;6.97;100.00
74065;BME280;62421;51.412;5.432;2023-04-23T02:09:08;100588.50;;;6.95;100.00
74065;BME280;62421;51.412;5.432;2023-04-23T02:11:34;100589.34;;;6.95;100.00
74065;BME280;62421;51.412;5.432;2023-04-23T02:14:00;100584.78;;;6.97;100.00
74065;BME280;62421;51.412;5.432;2023-04-23T02:16:26;100577.53;;;7.00;100.00
74065;BME280;62421;51.412;5.432;2023-04-23T02:18:53;100578.19;;;7.03;100.00
74065;BME280;62421;51.412;5.432;2023-04-23T02:21:20;100574.31;;;7.09;100.00
74065;BME280;62421;51.412;5.432;2023-04-23T02:23:45;100575.84;;;7.13;100.00
74065;BME280;62421;51.412;5.432;2023-04-23T02:26:11;100569.47;;;7.15;100.00
74065;BME280;62421;51.412;5.432;2023-04-23T02:28:36;100579.97;;;7.18;100.00
74065;BME280;62421;51.412;5.432;2023-04-23T02:31:02;100579.97;;;7.18;100.00
74065;BME280;62421;51.412;5.432;2023-04-23T02:33:27;100567.56;;;7.17;100.00
74065;BME280;62421;51.412;5.432;2023-04-23T02:35:53;100571.97;;;7.18;100.00
74065;BME280;62421;51.412;5.432;2023-04-23T02:38:18;100571.00;;;7.20;100.00
74065;BME280;62421;51.412;5.432;2023-04-23T02:40:43;100580.06;;;7.17;100.00
74065;BME280;62421;51.412;5.432;2023-04-23T02:43:09;100580.34;;;7.12;100.00
74065;BME280;62421;51.412;5.432;2023-04-23T02:45:34;100568.28;;;7.05;100.00
74065;BME280;62421;51.412;5.432;2023-04-23T02:47:59;100570.38;;;7.00;100.00
74065;BME280;62421;51.412;5.432;2023-04-23T02:50:25;100575.81;;;6.98;100.00
74065;BME280;62421;51.412;5.432;2023-04-23T02:52:50;100573.13;;;6.98;100.00
74065;BME280;62421;51.412;5.432;2023-04-23T02:55:15;100567.78;;;6.98;100.00
74065;BME280;62421;51.412;5.432;2023-04-23T02:57:41;100569.53;;;7.00;100.00
74065;BME280;62421;51.412;5.432;2023-04-23T03:00:07;100560.75;;;6.97;100.00
74065;BME280;62421;51.412;5.432;2023-04-23T03:02:33;100562.66;;;6.95;100.00
74065;BME280;62421;51.412;5.432;2023-04-23T03:04:59;100562.81;;;6.92;100.00
74065;BME280;62421;51.412;5.432;2023-04-23T03:07:24;100566.53;;;6.90;100.00
74065;BME280;62421;51.412;5.432;2023-04-23T03:09:50;100557.00;;;6.86;100.00
74065;BME280;62421;51.412;5.432;2023-04-23T03:12:15;100561.66;;;6.82;100.00
74065;BME280;62421;51.412;5.432;2023-04-23T03:14:42;100556.41;;;6.81;100.00
74065;BME280;62421;51.412;5.432;2023-04-23T03:17:07;100553.81;;;6.79;100.00
74065;BME280;62421;51.412;5.432;2023-04-23T03:19:33;100552.78;;;6.82;100.00
74065;BME280;62421;51.412;5.432;2023-04-23T03:21:58;100554.44;;;6.84;100.00
74065;BME280;62421;51.412;5.432;2023-04-23T03:24:23;100545.28;;;6.88;100.00
74065;BME280;62421;51.412;5.432;2023-04-23T03:26:50;100552.13;;;6.92;100.00
74065;BME280;62421;51.412;5.432;2023-04-23T03:29:15;100543.00;;;6.96;100.00
74065;BME280;62421;51.412;5.432;2023-04-23T03:31:40;100545.38;;;7.01;100.00
74065;BME280;62421;51.412;5.432;2023-04-23T03:34:06;100547.03;;;7.04;100.00
74065;BME280;62421;51.412;5.432;2023-04-23T03:36:31;100538.84;;;7.07;100.00
74065;BME280;62421;51.412;5.432;2023-04-23T03:38:56;100542.28;;;7.09;100.00
74065;BME280;62421;51.412;5.432;2023-04-23T03:41:22;100541.13;;;7.13;100.00
74065;BME280;62421;51.412;5.432;2023-04-23T03:43:48;100538.38;;;7.14;100.00
74065;BME280;62421;51.412;5.432;2023-04-23T03:46:13;100548.94;;;7.16;100.00
74065;BME280;62421;51.412;5.432;2023-04-23T03:48:38;100542.47;;;7.20;100.00
74065;BME280;62421;51.412;5.432;2023-04-23T03:51:04;100557.56;;;7.21;100.00
74065;BME280;62421;51.412;5.432;2023-04-23T03:53:31;100545.84;;;7.24;100.00
74065;BME280;62421;51.412;5.432;2023-04-23T03:55:56;100546.69;;;7.24;100.00
74065;BME280;62421;51.412;5.432;2023-04-23T03:58:21;100545.75;;;7.25;100.00
74065;BME280;62421;51.412;5.432;2023-04-23T04:00:47;100543.16;;;7.24;100.00
74065;BME280;62421;51.412;5.432;2023-04-23T04:03:12;100550.59;;;7.18;100.00
74065;BME280;62421;51.412;5.432;2023-04-23T04:05:37;100551.75;;;7.14;100.00
74065;BME280;62421;51.412;5.432;2023-04-23T04:08:03;100560.03;;;7.10;100.00
74065;BME280;62421;51.412;5.432;2023-04-23T04:10:29;100559.34;;;7.06;100.00
74065;BME280;62421;51.412;5.432;2023-04-23T04:12:55;100558.66;;;7.03;100.00
74065;BME280;62421;51.412;5.432;2023-04-23T04:15:20;100549.03;;;7.00;100.00
74065;BME280;62421;51.412;5.432;2023-04-23T04:17:46;100553.59;;;6.98;100.00
74065;BME280;62421;51.412;5.432;2023-04-23T04:20:11;100550.06;;;6.97;100.00
74065;BME280;62421;51.412;5.432;2023-04-23T04:22:37;100551.97;;;6.95;100.00
74065;BME280;62421;51.412;5.432;2023-04-23T04:25:03;100552.81;;;6.96;100.00
74065;BME280;62421;51.412;5.432;2023-04-23T04:27:29;100552.91;;;6.94;100.00
74065;BME280;62421;51.412;5.432;2023-04-23T04:29:58;100560.75;;;6.97;100.00
74065;BME280;62421;51.412;5.432;2023-04-23T04:32:23;100553.59;;;6.98;100.00
74065;BME280;62421;51.412;5.432;2023-04-23T04:34:49;100555.22;;;7.01;100.00
74065;BME280;62421;51.412;5.432;2023-04-23T04:37:14;100551.69;;;7.00;100.00
74065;BME280;62421;51.412;5.432;2023-04-23T04:39:40;100556.19;;;7.00;100.00
74065;BME280;62421;51.412;5.432;2023-04-23T04:42:06;100550.25;;;6.94;100.00
74065;BME280;62421;51.412;5.432;2023-04-23T04:44:32;100558.44;;;6.91;100.00
74065;BME280;62421;51.412;5.432;2023-04-23T04:46:57;100554.22;;;6.87;100.00
74065;BME280;62421;51.412;5.432;2023-04-23T04:49:22;100551.00;;;6.82;100.00
74065;BME280;62421;51.412;5.432;2023-04-23T04:51:48;100549.34;;;6.80;100.00
74065;BME280;62421;51.412;5.432;2023-04-23T04:54:13;100553.94;;;6.78;100.00
74065;BME280;62421;51.412;5.432;2023-04-23T04:56:38;100557.63;;;6.75;100.00
74065;BME280;62421;51.412;5.432;2023-04-23T04:59:04;100560.41;;;6.73;100.00
74065;BME280;62421;51.412;5.432;2023-04-23T05:01:29;100557.47;;;6.78;100.00
74065;BME280;62421;51.412;5.432;2023-04-23T05:03:58;100562.31;;;6.86;100.00
74065;BME280;62421;51.412;5.432;2023-04-23T05:06:23;100558.09;;;6.97;100.00
74065;BME280;62421;51.412;5.432;2023-04-23T05:08:49;100561.72;;;7.11;100.00
74065;BME280;62421;51.412;5.432;2023-04-23T05:11:18;100569.09;;;7.22;100.00
74065;BME280;62421;51.412;5.432;2023-04-23T05:13:46;100554.31;;;7.30;100.00
74065;BME280;62421;51.412;5.432;2023-04-23T05:16:12;100555.47;;;7.41;100.00
74065;BME280;62421;51.412;5.432;2023-04-23T05:18:38;100555.00;;;7.48;100.00
74065;BME280;62421;51.412;5.432;2023-04-23T05:21:04;100558.06;;;7.56;100.00
74065;BME280;62421;51.412;5.432;2023-04-23T05:23:30;100556.63;;;7.65;100.00
74065;BME280;62421;51.412;5.432;2023-04-23T05:25:56;100560.44;;;7.75;100.00
74065;BME280;62421;51.412;5.432;2023-04-23T05:28:22;100560.75;;;7.85;100.00
74065;BME280;62421;51.412;5.432;2023-04-23T05:30:48;100560.16;;;7.94;100.00
74065;BME280;62421;51.412;5.432;2023-04-23T05:33:14;100567.78;;;8.00;100.00
74065;BME280;62421;51.412;5.432;2023-04-23T05:35:40;100567.47;;;8.05;100.00
74065;BME280;62421;51.412;5.432;2023-04-23T05:38:05;100565.28;;;8.12;100.00
74065;BME280;62421;51.412;5.432;2023-04-23T05:40:31;100569.38;;;8.17;100.00
74065;BME280;62421;51.412;5.432;2023-04-23T05:43:00;100567.94;;;8.26;100.00
74065;BME280;62421;51.412;5.432;2023-04-23T05:45:25;100557.69;;;8.33;100.00
74065;BME280;62421;51.412;5.432;2023-04-23T05:47:51;100557.47;;;8.36;100.00
74065;BME280;62421;51.412;5.432;2023-04-23T05:50:17;100555.78;;;8.35;100.00
74065;BME280;62421;51.412;5.432;2023-04-23T05:52:42;100557.88;;;8.30;100.00
74065;BME280;62421;51.412;5.432;2023-04-23T05:55:08;100560.00;;;8.25;100.00
74065;BME280;62421;51.412;5.432;2023-04-23T05:57:35;100561.34;;;8.17;100.00
74065;BME280;62421;51.412;5.432;2023-04-23T06:00:00;100566.03;;;8.14;100.00
74065;BME280;62421;51.412;5.432;2023-04-23T06:02:26;100559.06;;;8.11;100.00
74065;BME280;62421;51.412;5.432;2023-04-23T06:04:53;100562.69;;;8.10;100.00
74065;BME280;62421;51.412;5.432;2023-04-23T06:07:19;100560.97;;;8.09;100.00
74065;BME280;62421;51.412;5.432;2023-04-23T06:09:44;100551.91;;;8.12;100.00
74065;BME280;62421;51.412;5.432;2023-04-23T06:12:10;100559.94;;;8.12;100.00
74065;BME280;62421;51.412;5.432;2023-04-23T06:14:35;100550.00;;;8.14;100.00
74065;BME280;62421;51.412;5.432;2023-04-23T06:17:01;100550.66;;;8.17;100.00
74065;BME280;62421;51.412;5.432;2023-04-23T06:19:26;100553.13;;;8.20;100.00
74065;BME280;62421;51.412;5.432;2023-04-23T06:21:52;100535.16;;;8.23;100.00
74065;BME280;62421;51.412;5.432;2023-04-23T06:24:18;100549.97;;;8.28;100.00
74065;BME280;62421;51.412;5.432;2023-04-23T06:26:43;100531.78;;;8.33;100.00
74065;BME280;62421;51.412;5.432;2023-04-23T06:29:09;100524.41;;;8.37;100.00
74065;BME280;62421;51.412;5.432;2023-04-23T06:31:34;100532.03;;;8.43;100.00
74065;BME280;62421;51.412;5.432;2023-04-23T06:34:00;100536.25;;;8.47;100.00
74065;BME280;62421;51.412;5.432;2023-04-23T06:36:25;100540.44;;;8.51;100.00
74065;BME280;62421;51.412;5.432;2023-04-23T06:38:51;100529.41;;;8.56;100.00
74065;BME280;62421;51.412;5.432;2023-04-23T06:41:16;100532.56;;;8.63;100.00
74065;BME280;62421;51.412;5.432;2023-04-23T06:43:42;100537.47;;;8.69;100.00
74065;BME280;62421;51.412;5.432;2023-04-23T06:46:07;100528.19;;;8.74;100.00
74065;BME280;62421;51.412;5.432;2023-04-23T06:48:33;100523.38;;;8.79;100.00
74065;BME280;62421;51.412;5.432;2023-04-23T06:50:58;100521.03;;;8.88;100.00
74065;BME280;62421;51.412;5.432;2023-04-23T06:53:23;100525.13;;;8.93;100.00
74065;BME280;62421;51.412;5.432;2023-04-23T06:55:49;100527.28;;;9.01;100.00
74065;BME280;62421;51.412;5.432;2023-04-23T06:58:16;100523.31;;;9.07;100.00
74065;BME280;62421;51.412;5.432;2023-04-23T07:00:41;100521.16;;;9.12;100.00
74065;BME280;62421;51.412;5.432;2023-04-23T07:03:07;100518.31;;;9.15;100.00
74065;BME280;62421;51.412;5.432;2023-04-23T07:05:32;100516.38;;;9.17;100.00
74065;BME280;62421;51.412;5.432;2023-04-23T07:07:57;100517.00;;;9.20;100.00
74065;BME280;62421;51.412;5.432;2023-04-23T07:10:24;100521.09;;;9.26;100.00
74065;BME280;62421;51.412;5.432;2023-04-23T07:12:49;100516.38;;;9.30;100.00
74065;BME280;62421;51.412;5.432;2023-04-23T07:15:15;100514.22;;;9.35;100.00
74065;BME280;62421;51.412;5.432;2023-04-23T07:17:40;100508.53;;;9.39;100.00
74065;BME280;62421;51.412;5.432;2023-04-23T07:20:06;100523.44;;;9.43;100.00
74065;BME280;62421;51.412;5.432;2023-04-23T07:22:33;100514.97;;;9.50;100.00
74065;BME280;62421;51.412;5.432;2023-04-23T07:24:59;100502.97;;;9.55;100.00
74065;BME280;62421;51.412;5.432;2023-04-23T07:27:25;100507.75;;;9.63;100.00
74065;BME280;62421;51.412;5.432;2023-04-23T07:29:50;100515.25;;;9.71;100.00
74065;BME280;62421;51.412;5.432;2023-04-23T07:32:16;100503.22;;;9.76;100.00
74065;BME280;62421;51.412;5.432;2023-04-23T07:34:42;100497.56;;;9.81;100.00
74065;BME280;62421;51.412;5.432;2023-04-23T07:37:07;100493.66;;;9.85;100.00
74065;BME280;62421;51.412;5.432;2023-04-23T07:39:33;100501.25;;;9.91;100.00
74065;BME280;62421;51.412;5.432;2023-04-23T07:41:59;100502.66;;;9.97;100.00
74065;BME280;62421;51.412;5.432;2023-04-23T07:44:26;100496.94;;;10.01;100.00
74065;BME280;62421;51.412;5.432;2023-04-23T07:46:51;100498.34;;;10.07;100.00
74065;BME280;62421;51.412;5.432;2023-04-23T07:49:17;100496.16;;;10.12;100.00
74065;BME280;62421;51.412;5.432;2023-04-23T07:51:42;100492.19;;;10.18;100.00
74065;BME280;62421;51.412;5.432;2023-04-23T07:54:08;100496.97;;;10.25;100.00
74065;BME280;62421;51.412;5.432;2023-04-23T07:56:34;100504.59;;;10.32;100.00
74065;BME280;62421;51.412;5.432;2023-04-23T07:59:00;100496.81;;;10.40;100.00
74065;BME280;62421;51.412;5.432;2023-04-23T08:01:27;100493.44;;;10.49;100.00
74065;BME280;62421;51.412;5.432;2023-04-23T08:03:52;100475.19;;;10.54;100.00
74065;BME280;62421;51.412;5.432;2023-04-23T08:06:21;100479.09;;;10.61;100.00
74065;BME280;62421;51.412;5.432;2023-04-23T08:08:47;100471.31;;;10.70;100.00
74065;BME280;62421;51.412;5.432;2023-04-23T08:11:12;100468.16;;;10.76;100.00
74065;BME280;62421;51.412;5.432;2023-04-23T08:13:38;100477.47;;;10.83;100.00
74065;BME280;62421;51.412;5.432;2023-04-23T08:16:03;100476.13;;;10.89;100.00
74065;BME280;62421;51.412;5.432;2023-04-23T08:18:29;100467.72;;;10.93;100.00
74065;BME280;62421;51.412;5.432;2023-04-23T08:20:54;100463.47;;;11.02;100.00
74065;BME280;62421;51.412;5.432;2023-04-23T08:23:20;100461.25;;;11.07;100.00
74065;BME280;62421;51.412;5.432;2023-04-23T08:25:46;100457.25;;;11.13;100.00
74065;BME280;62421;51.412;5.432;2023-04-23T08:28:11;100458.34;;;11.21;100.00
74065;BME280;62421;51.412;5.432;2023-04-23T08:30:37;100461.41;;;11.28;100.00
74065;BME280;62421;51.412;5.432;2023-04-23T08:33:02;100465.31;;;11.35;100.00
74065;BME280;62421;51.412;5.432;2023-04-23T08:35:28;100469.84;;;11.46;100.00
74065;BME280;62421;51.412;5.432;2023-04-23T08:37:54;100464.47;;;11.57;100.00
74065;BME280;62421;51.412;5.432;2023-04-23T08:40:19;100457.50;;;11.66;100.00
74065;BME280;62421;51.412;5.432;2023-04-23T08:42:52;100459.16;;;11.78;100.00
74065;BME280;62421;51.412;5.432;2023-04-23T08:45:20;100459.22;;;11.90;100.00
74065;BME280;62421;51.412;5.432;2023-04-23T08:47:46;100459.19;;;12.01;100.00
74065;BME280;62421;51.412;5.432;2023-04-23T08:50:13;100459.88;;;12.14;100.00
74065;BME280;62421;51.412;5.432;2023-04-23T08:52:40;100457.13;;;12.25;100.00
74065;BME280;62421;51.412;5.432;2023-04-23T08:55:08;100456.97;;;12.38;100.00
74065;BME280;62421;51.412;5.432;2023-04-23T08:57:39;100452.13;;;12.53;100.00
74065;BME280;62421;51.412;5.432;2023-04-23T09:00:09;100449.84;;;12.69;100.00
74065;BME280;62421;51.412;5.432;2023-04-23T09:02:40;100446.03;;;12.93;100.00
74065;BME280;62421;51.412;5.432;2023-04-23T09:05:06;100458.63;;;13.14;96.07
74065;BME280;62421;51.412;5.432;2023-04-23T09:07:33;100451.25;;;13.37;95.12
74065;BME280;62421;51.412;5.432;2023-04-23T09:09:59;100444.50;;;13.52;92.54
74065;BME280;62421;51.412;5.432;2023-04-23T09:12:25;100452.50;;;13.63;94.77
74065;BME280;62421;51.412;5.432;2023-04-23T09:14:51;100444.88;;;13.78;96.03
74065;BME280;62421;51.412;5.432;2023-04-23T09:17:20;100449.03;;;13.92;89.93
74065;BME280;62421;51.412;5.432;2023-04-23T09:19:48;100438.66;;;13.97;90.14
74065;BME280;62421;51.412;5.432;2023-04-23T09:22:15;100430.31;;;14.10;91.18
74065;BME280;62421;51.412;5.432;2023-04-23T09:24:41;100427.75;;;14.18;88.81
74065;BME280;62421;51.412;5.432;2023-04-23T09:27:09;100430.31;;;14.20;86.95
74065;BME280;62421;51.412;5.432;2023-04-23T09:29:35;100428.47;;;14.20;87.55
74065;BME280;62421;51.412;5.432;2023-04-23T09:32:08;100423.34;;;14.27;87.04
74065;BME280;62421;51.412;5.432;2023-04-23T09:34:35;100419.50;;;14.29;84.71
74065;BME280;62421;51.412;5.432;2023-04-23T09:37:02;100419.50;;;14.29;85.54
74065;BME280;62421;51.412;5.432;2023-04-23T09:39:28;100419.50;;;14.29;79.67
74065;BME280;62421;51.412;5.432;2023-04-23T09:41:53;100413.81;;;14.32;82.34
74065;BME280;62421;51.412;5.432;2023-04-23T09:44:20;100426.75;;;14.48;80.52
74065;BME280;62421;51.412;5.432;2023-04-23T09:46:50;100424.91;;;14.68;82.24
74065;BME280;62421;51.412;5.432;2023-04-23T09:49:16;100429.44;;;14.78;76.20
74065;BME280;62421;51.412;5.432;2023-04-23T09:51:44;100419.66;;;14.86;79.42
74065;BME280;62421;51.412;5.432;2023-04-23T09:54:18;100419.59;;;14.96;76.44
74065;BME280;62421;51.412;5.432;2023-04-23T09:56:49;100417.16;;;15.03;77.82
74065;BME280;62421;51.412;5.432;2023-04-23T09:59:34;100411.00;;;15.20;81.98
74065;BME280;62421;51.412;5.432;2023-04-23T10:02:05;100407.81;;;15.34;77.67
74065;BME280;62421;51.412;5.432;2023-04-23T10:04:31;100419.28;;;15.46;75.97
74065;BME280;62421;51.412;5.432;2023-04-23T10:07:02;100405.56;;;15.57;75.66
74065;BME280;62421;51.412;5.432;2023-04-23T10:09:29;100406.66;;;15.74;74.66
74065;BME280;62421;51.412;5.432;2023-04-23T10:11:59;100402.09;;;15.93;77.16
74065;BME280;62421;51.412;5.432;2023-04-23T10:14:27;100405.75;;;16.20;74.26
74065;BME280;62421;51.412;5.432;2023-04-23T10:17:00;100391.88;;;16.41;74.92
74065;BME280;62421;51.412;5.432;2023-04-23T10:19:27;100382.44;;;16.45;70.71
74065;BME280;62421;51.412;5.432;2023-04-23T10:22:00;100389.16;;;16.58;71.63
74065;BME280;62421;51.412;5.432;2023-04-23T10:24:34;100394.00;;;16.73;74.98
74065;BME280;62421;51.412;5.432;2023-04-23T10:27:02;100397.50;;;16.83;72.86
74065;BME280;62421;51.412;5.432;2023-04-23T10:29:33;100390.63;;;16.97;73.99
74065;BME280;62421;51.412;5.432;2023-04-23T10:32:01;100393.03;;;17.00;70.03
74065;BME280;62421;51.412;5.432;2023-04-23T10:34:28;100385.19;;;16.97;68.46
74065;BME280;62421;51.412;5.432;2023-04-23T10:36:55;100389.91;;;16.87;69.02
74065;BME280;62421;51.412;5.432;2023-04-23T10:39:23;100381.56;;;16.80;70.29
74065;BME280;62421;51.412;5.432;2023-04-23T10:41:49;100367.19;;;16.88;70.58
74065;BME280;62421;51.412;5.432;2023-04-23T10:44:18;100368.97;;;17.05;69.51
74065;BME280;62421;51.412;5.432;2023-04-23T10:46:53;100363.50;;;17.23;70.16
74065;BME280;62421;51.412;5.432;2023-04-23T10:49:22;100366.13;;;17.41;68.48
74065;BME280;62421;51.412;5.432;2023-04-23T10:51:48;100352.09;;;17.62;68.27
74065;BME280;62421;51.412;5.432;2023-04-23T10:54:27;100345.38;;;17.83;68.41
74065;BME280;62421;51.412;5.432;2023-04-23T10:56:58;100343.91;;;17.96;69.25
74065;BME280;62421;51.412;5.432;2023-04-23T10:59:23;100339.84;;;18.00;66.34
74065;BME280;62421;51.412;5.432;2023-04-23T11:01:49;100341.19;;;17.96;65.55
74065;BME280;62421;51.412;5.432;2023-04-23T11:04:22;100339.97;;;17.91;68.12
74065;BME280;62421;51.412;5.432;2023-04-23T11:09:44;100338.09;;;17.91;70.12
74065;BME280;62421;51.412;5.432;2023-04-23T11:14:48;100328.72;;;17.77;66.79
74065;BME280;62421;51.412;5.432;2023-04-23T11:17:16;100324.53;;;17.91;65.26
74065;BME280;62421;51.412;5.432;2023-04-23T11:20:11;100312.84;;;17.99;67.65
74065;BME280;62421;51.412;5.432;2023-04-23T11:22:39;100313.69;;;18.08;65.40
74065;BME280;62421;51.412;5.432;2023-04-23T11:25:10;100311.66;;;18.18;62.63
74065;BME280;62421;51.412;5.432;2023-04-23T11:27:40;100301.78;;;18.25;62.79
74065;BME280;62421;51.412;5.432;2023-04-23T11:30:22;100291.91;;;18.40;63.57
74065;BME280;62421;51.412;5.432;2023-04-23T11:32:50;100288.34;;;18.56;60.37
74065;BME280;62421;51.412;5.432;2023-04-23T11:35:17;100290.84;;;18.66;60.86
74065;BME280;62421;51.412;5.432;2023-04-23T11:37:43;100287.28;;;18.74;60.65
74065;BME280;62421;51.412;5.432;2023-04-23T11:40:14;100290.19;;;18.80;61.26
74065;BME280;62421;51.412;5.432;2023-04-23T11:42:50;100279.97;;;18.91;61.71
74065;BME280;62421;51.412;5.432;2023-04-23T11:45:21;100273.13;;;18.95;59.95
74065;BME280;62421;51.412;5.432;2023-04-23T11:47:49;100271.44;;;18.94;60.98
74065;BME280;62421;51.412;5.432;2023-04-23T11:52:49;100255.03;;;19.10;56.61
74065;BME280;62421;51.412;5.432;2023-04-23T11:55:15;100258.81;;;19.01;56.87
74065;BME280;62421;51.412;5.432;2023-04-23T11:57:42;100254.06;;;18.95;58.09
74065;BME280;62421;51.412;5.432;2023-04-23T12:00:23;100247.59;;;19.04;61.18
74065;BME280;62421;51.412;5.432;2023-04-23T12:02:59;100246.22;;;19.08;60.69
74065;BME280;62421;51.412;5.432;2023-04-23T12:05:29;100240.09;;;19.06;58.40
74065;BME280;62421;51.412;5.432;2023-04-23T12:08:11;100236.56;;;18.97;59.59
74065;BME280;62421;51.412;5.432;2023-04-23T12:10:49;100237.94;;;18.93;59.24
74065;BME280;62421;51.412;5.432;2023-04-23T12:13:16;100239.34;;;18.81;56.78
74065;BME280;62421;51.412;5.432;2023-04-23T12:16:22;100224.91;;;18.64;59.26
74065;BME280;62421;51.412;5.432;2023-04-23T12:18:40;100223.25;;;18.55;57.52
74065;BME280;62421;51.412;5.432;2023-04-23T12:21:11;100215.09;;;18.55;58.37
74065;BME280;62421;51.412;5.432;2023-04-23T12:23:41;100209.78;;;18.70;59.20
74065;BME280;62421;51.412;5.432;2023-04-23T12:26:12;100202.47;;;18.78;58.38
74065;BME280;62421;51.412;5.432;2023-04-23T12:29:05;100202.63;;;18.85;60.69
74065;BME280;62421;51.412;5.432;2023-04-23T12:31:31;100202.06;;;18.90;56.20
74065;BME280;62421;51.412;5.432;2023-04-23T12:34:05;100192.16;;;18.97;57.00
74065;BME280;62421;51.412;5.432;2023-04-23T12:36:31;100182.47;;;19.02;55.80
74065;BME280;62421;51.412;5.432;2023-04-23T12:41:49;100187.38;;;19.07;53.26
74065;BME280;62421;51.412;5.432;2023-04-23T12:44:15;100177.19;;;19.01;52.50
74065;BME280;62421;51.412;5.432;2023-04-23T12:46:40;100166.34;;;18.93;53.34
74065;BME280;62421;51.412;5.432;2023-04-23T12:49:05;100163.63;;;18.93;54.43
74065;BME280;62421;51.412;5.432;2023-04-23T12:51:31;100161.41;;;18.96;55.40
74065;BME280;62421;51.412;5.432;2023-04-23T12:53:56;100155.28;;;18.94;55.37
74065;BME280;62421;51.412;5.432;2023-04-23T12:56:21;100149.31;;;18.99;54.52
74065;BME280;62421;51.412;5.432;2023-04-23T12:58:47;100156.09;;;19.03;53.37